Map

Track Data

SID SEASON NUMBER BASIN SUBBASIN NAME ISO_TIME NATURE LAT LON WMO_WIND WMO_PRES WMO_AGENCY TRACK_TYPE DIST2LAND LANDFALL IFLAG USA_AGENCY USA_ATCF_ID USA_LAT USA_LON USA_RECORD USA_STATUS USA_WIND USA_PRES USA_SSHS USA_R34_NE USA_R34_SE USA_R34_SW USA_R34_NW USA_R50_NE USA_R50_SE USA_R50_SW USA_R50_NW USA_R64_NE USA_R64_SE USA_R64_SW USA_R64_NW USA_POCI USA_ROCI USA_RMW USA_EYE TOKYO_LAT TOKYO_LON TOKYO_GRADE TOKYO_WIND TOKYO_PRES TOKYO_R50_DIR TOKYO_R50_LONG TOKYO_R50_SHORT TOKYO_R30_DIR TOKYO_R30_LONG TOKYO_R30_SHORT TOKYO_LAND CMA_LAT CMA_LON CMA_CAT CMA_WIND CMA_PRES HKO_LAT HKO_LON HKO_CAT HKO_WIND HKO_PRES NEWDELHI_LAT NEWDELHI_LON NEWDELHI_GRADE NEWDELHI_WIND NEWDELHI_PRES NEWDELHI_CI NEWDELHI_DP NEWDELHI_POCI REUNION_LAT REUNION_LON REUNION_TYPE REUNION_WIND REUNION_PRES REUNION_TNUM REUNION_CI REUNION_RMW REUNION_R34_NE REUNION_R34_SE REUNION_R34_SW REUNION_R34_NW REUNION_R50_NE REUNION_R50_SE REUNION_R50_SW REUNION_R50_NW REUNION_R64_NE REUNION_R64_SE REUNION_R64_SW REUNION_R64_NW BOM_LAT BOM_LON BOM_TYPE BOM_WIND BOM_PRES BOM_TNUM BOM_CI BOM_RMW BOM_R34_NE BOM_R34_SE BOM_R34_SW BOM_R34_NW BOM_R50_NE BOM_R50_SE BOM_R50_SW BOM_R50_NW BOM_R64_NE BOM_R64_SE BOM_R64_SW BOM_R64_NW BOM_ROCI BOM_POCI BOM_EYE BOM_POS_METHOD BOM_PRES_METHOD NADI_LAT NADI_LON NADI_CAT NADI_WIND NADI_PRES WELLINGTON_LAT WELLINGTON_LON WELLINGTON_WIND WELLINGTON_PRES DS824_LAT DS824_LON DS824_STAGE DS824_WIND DS824_PRES TD9636_LAT TD9636_LON TD9636_STAGE TD9636_WIND TD9636_PRES TD9635_LAT TD9635_LON TD9635_WIND TD9635_PRES TD9635_ROCI NEUMANN_LAT NEUMANN_LON NEUMANN_CLASS NEUMANN_WIND NEUMANN_PRES MLC_LAT MLC_LON MLC_CLASS MLC_WIND MLC_PRES USA_GUST BOM_GUST BOM_GUST_PER REUNION_GUST REUNION_GUST_PER USA_SEAHGT USA_SEARAD_NE USA_SEARAD_SE USA_SEARAD_SW USA_SEARAD_NW STORM_SPEED STORM_DIR
1918071N16129 1918 20 WP MM NOT_NAMED 1918-03-12 09:00:00 NR 16.0000 128.500 main 499 495 __________O___ -1 16.0000 128.500 7 9 336
1918071N16129 1918 20 WP MM NOT_NAMED 1918-03-12 12:00:00 NR 16.3914 128.317 main 503 503 __________P___ -1 16.3914 128.317 7 9 339
1918071N16129 1918 20 WP MM NOT_NAMED 1918-03-12 15:00:00 NR 16.8460 128.157 main 521 519 __________P___ -1 16.8460 128.157 7 11 346
1918071N16129 1918 20 WP MM NOT_NAMED 1918-03-12 18:00:00 NR 17.4276 128.044 main 549 549 __________P___ -1 17.4276 128.044 7 14 354
1918071N16129 1918 20 WP MM NOT_NAMED 1918-03-12 21:00:00 NR 18.2000 128.000 main 598 598 __________O___ -1 18.2000 128.000 7 18 1
1918071N16129 1918 20 WP MM NOT_NAMED 1918-03-13 00:00:00 NR 19.1995 128.049 main 606 606 __________P___ -1 19.1995 128.049 7 22 5
1918071N16129 1918 20 WP MM NOT_NAMED 1918-03-13 03:00:00 NR 20.3513 128.205 main 657 657 __________P___ -1 20.3513 128.205 7 24 10
1918071N16129 1918 20 WP MM NOT_NAMED 1918-03-13 06:00:00 NR 21.5524 128.484 main 739 734 __________P___ -1 21.5524 128.484 7 25 15
1918071N16129 1918 20 WP MM NOT_NAMED 1918-03-13 09:00:00 NR 22.7000 128.900 main 740 737 __________O___ -1 22.7000 128.900 7 24 24
1918071N16129 1918 20 WP MM NOT_NAMED 1918-03-13 12:00:00 NR 23.7717 129.556 main 780 704 __________P___ -1 23.7717 129.556 7 24 33
1918071N16129 1918 20 WP MM NOT_NAMED 1918-03-13 15:00:00 NR 24.7545 130.333 main 693 614 __________P___ -1 24.7545 130.333 7 23 38
1918071N16129 1918 20 WP MM NOT_NAMED 1918-03-13 18:00:00 NR 25.5846 131.094 main 604 544 __________P___ -1 25.5846 131.094 7 19 40
1918071N16129 1918 20 WP MM NOT_NAMED 1918-03-13 21:00:00 NR 26.2000 131.700 main 544 515 __________O___ -1 26.2000 131.700 7 12 39
1918071N16129 1918 20 WP MM NOT_NAMED 1918-03-14 00:00:00 NR 26.5340 131.949 main 515 496 __________P___ -1 26.5340 131.949 7 5 32
1918071N16129 1918 20 WP MM NOT_NAMED 1918-03-14 03:00:00 NR 26.6647 132.022 main 496 496 __________P___ -1 26.6647 132.022 7 2 19
1918071N16129 1918 20 WP MM NOT_NAMED 1918-03-14 06:00:00 NR 26.6881 132.009 main 496 496 __________P___ -1 26.6881 132.009 7 0 333
1918071N16129 1918 20 WP MM NOT_NAMED 1918-03-14 09:00:00 NR 26.7000 132.000 main 496 485 __________O___ -1 26.7000 132.000 4 2 32
1918071N16129 1918 20 WP MM NOT_NAMED 1918-03-14 12:00:00 NR 26.8345 132.104 main 488 469 __________P___ -1 26.8345 132.104 4 3 37
1918071N16129 1918 20 WP MM NOT_NAMED 1918-03-14 15:00:00 NR 26.9772 132.233 main 469 462 __________P___ -1 26.9772 132.233 4 4 41
1918071N16129 1918 20 WP MM NOT_NAMED 1918-03-14 18:00:00 NR 27.1313 132.395 main 465 448 __________P___ -1 27.1313 132.395 4 5 45
1918071N16129 1918 20 WP MM NOT_NAMED 1918-03-14 21:00:00 NR 27.3000 132.600 main 452 440 __________O___ -1 27.3000 132.600 4 5 49
1918071N16129 1918 20 WP MM NOT_NAMED 1918-03-15 00:00:00 NR 27.4817 132.853 main 445 435 __________P___ -1 27.4817 132.853 4 6 52
1918071N16129 1918 20 WP MM NOT_NAMED 1918-03-15 03:00:00 NR 27.6776 133.148 main 435 433 __________P___ -1 27.6776 133.148 4 7 54
1918071N16129 1918 20 WP MM NOT_NAMED 1918-03-15 06:00:00 NR 27.8847 133.469 main 439 429 __________P___ -1 27.8847 133.469 4 7 54
1918071N16129 1918 20 WP MM NOT_NAMED 1918-03-15 09:00:00 NR 28.1000 133.800 main 434 430 __________O___ -1 28.1000 133.800 4 6 57
1918071N16129 1918 20 WP MM NOT_NAMED 1918-03-15 12:00:00 NR 28.1843 133.998 main 436 432 __________P___ -1 28.1843 133.998 4 4 62
1918071N16129 1918 20 WP MM NOT_NAMED 1918-03-15 15:00:00 NR 28.2966 134.220 main 438 435 __________P___ -1 28.2966 134.220 4 6 54
1918071N16129 1918 20 WP MM NOT_NAMED 1918-03-15 18:00:00 NR 28.5357 134.556 main 446 436 __________P___ -1 28.5357 134.556 4 10 48
1918071N16129 1918 20 WP MM NOT_NAMED 1918-03-15 21:00:00 NR 29.0000 135.100 main 444 402 __________O___ -1 29.0000 135.100 4 18 45
1918071N16129 1918 20 WP MM NOT_NAMED 1918-03-16 00:00:00 NR 29.8097 136.019 main 402 314 __________P___ -1 29.8097 136.019 4 26 44
1918071N16129 1918 20 WP MM NOT_NAMED 1918-03-16 03:00:00 NR 30.8350 137.160 main 318 282 __________P___ -1 30.8350 137.160 4 30 43
1918071N16129 1918 20 WP MM NOT_NAMED 1918-03-16 06:00:00 NR 31.9666 138.399 main 286 189 __________P___ -1 31.9666 138.399 4 31 42
1918071N16129 1918 20 WP MM NOT_NAMED 1918-03-16 09:00:00 NR 33.1000 139.600 main 182 110 __________O___ -1 33.1000 139.600 4 28 41
1918071N16129 1918 20 WP MM NOT_NAMED 1918-03-16 12:00:00 NR 34.0588 140.547 main 104 84 __________P___ -1 34.0588 140.547 4 24 38
1918071N16129 1918 20 WP MM NOT_NAMED 1918-03-16 15:00:00 NR 35.0115 141.430 main 90 84 __________P___ -1 35.0115 141.430 4 24 37
1918071N16129 1918 20 WP MM NOT_NAMED 1918-03-16 18:00:00 NR 35.9839 142.296 main 130 130 __________P___ -1 35.9839 142.296 4 25 36
1918071N16129 1918 20 WP MM NOT_NAMED 1918-03-16 21:00:00 NR 37.0000 143.200 main 194 194 __________O___ -1 37.0000 143.200 4 26 36
1918071N16129 1918 20 WP MM NOT_NAMED 1918-03-17 00:00:00 NR 38.0858 144.191 main 230 230 __________P___ -1 38.0858 144.191 4 27 36
1918071N16129 1918 20 WP MM NOT_NAMED 1918-03-17 03:00:00 NR 39.2133 145.244 main 267 267 __________P___ -1 39.2133 145.244 4 28 37
1918071N16129 1918 20 WP MM NOT_NAMED 1918-03-17 06:00:00 NR 40.3593 146.374 main 308 258 __________P___ -1 40.3593 146.374 4 29 38
1918071N16129 1918 20 WP MM NOT_NAMED 1918-03-17 09:00:00 NR 41.5000 147.600 main 255 250 __________O___ -1 41.5000 147.600 4 30 40
1918071N16129 1918 20 WP MM NOT_NAMED 1918-03-17 12:00:00 NR 42.6157 148.935 main 260 218 __________P___ -1 42.6157 148.935 4 30 43
1918071N16129 1918 20 WP MM NOT_NAMED 1918-03-17 15:00:00 NR 43.7036 150.372 main 218 182 __________P___ -1 43.7036 150.372 4 30 45
1918071N16129 1918 20 WP MM NOT_NAMED 1918-03-17 18:00:00 NR 44.7648 151.899 main 182 182 __________P___ -1 44.7648 151.899 4 30 47
1918071N16129 1918 20 WP MM NOT_NAMED 1918-03-17 21:00:00 NR 45.8000 153.500 main 240 __________O___ -1 45.8000 153.500 4 30 47

Digital Typhoon Data and Search

About IBTrACS Database

This database is a web-friendly format of International Best Track Archive for Climate Stewardship (IBTrACS), a global best track data archive curated by NOAA dating back to 1842.

Updated: 2021-11-26